Time;durP1;ratioP1;P1;durP2;ratioP2;P2;SDS_P1;SDS_P2;PMS_P1;PMS_P2;Temp;Humidity;BMP_temperature;BMP_pressure;BME280_temperature;BME280_humidity;BME280_pressure;Samples;Min_cycle;Max_cycle;Signal;HPM_P1;HPM_P2
2022/12/22 03:28:07;;;;;;;8.05;4.03;;;11.80;71.50;;;7.25;100.00;95224.94;4950777;28;20061;-57
2022/12/22 03:30:38;;;;;;;8.20;4.72;;;11.80;71.60;;;7.23;100.00;95227.03;4939388;29;20397;-54
2022/12/22 03:33:12;;;;;;;6.38;4.40;;;11.80;71.60;;;7.22;100.00;95222.78;4952125;29;20478;-56
2022/12/22 03:35:38;;;;;;;5.03;4.30;;;11.80;71.70;;;7.21;100.00;95224.63;4948936;28;20041;-57
2022/12/22 03:38:10;;;;;;;6.32;4.50;;;11.70;71.60;;;7.19;100.00;95216.13;4951819;29;20022;-55
2022/12/22 03:40:38;;;;;;;7.70;4.40;;;11.70;71.80;;;7.15;100.00;95212.41;4949908;28;20374;-55
2022/12/22 03:48:39;;;;;;;8.43;4.20;;;11.70;71.90;;;7.11;100.00;95209.47;4941520;29;20029;-56
2022/12/22 03:51:06;;;;;;;5.45;4.13;;;11.70;71.90;;;7.10;100.00;95212.34;4951455;29;20046;-56
2022/12/22 03:53:32;;;;;;;5.80;4.18;;;11.70;72.00;;;7.12;100.00;95218.19;4954189;28;20034;-53
2022/12/22 03:56:01;;;;;;;7.47;4.43;;;11.70;72.00;;;7.14;100.00;95219.53;4930996;29;20050;-53
2022/12/22 03:58:27;;;;;;;5.47;4.20;;;11.70;72.00;;;7.20;100.00;95217.72;4946360;28;20049;-54
2022/12/22 04:01:08;;;;;;;5.90;3.85;;;11.70;72.00;;;7.19;100.00;95210.84;4940392;29;20047;-52
2022/12/22 04:03:34;;;;;;;5.43;4.15;;;11.70;72.10;;;7.19;100.00;95216.13;4926664;29;20490;-54
2022/12/22 04:06:00;;;;;;;6.80;4.10;;;11.70;72.10;;;7.15;100.00;95218.50;4929167;29;20034;-56
2022/12/22 04:08:26;;;;;;;5.28;3.85;;;11.70;72.10;;;7.18;100.00;95214.53;4921825;29;20039;-55
2022/12/22 04:13:39;;;;;;;6.18;4.00;;;11.70;72.10;;;7.18;100.00;95212.69;4933087;29;20102;-57
2022/12/22 04:16:06;;;;;;;6.82;4.05;;;11.70;72.10;;;7.23;100.00;95221.72;4932209;29;20027;-57
2022/12/22 04:18:37;;;;;;;7.72;4.80;;;11.70;72.10;;;7.22;100.00;95218.28;4918129;29;20491;-53
2022/12/22 04:21:03;;;;;;;5.70;3.88;;;11.70;72.10;;;7.19;100.00;95213.47;4921336;29;20035;-55
2022/12/22 04:23:32;;;;;;;6.10;4.20;;;11.70;72.10;;;7.20;100.00;95201.81;4926480;29;20093;-53
2022/12/22 04:25:59;;;;;;;6.25;4.43;;;11.70;72.10;;;7.19;100.00;95194.94;4921301;29;20027;-52
2022/12/22 04:28:25;;;;;;;6.50;4.40;;;11.70;72.10;;;7.18;100.00;95186.19;4922676;29;20399;-53
2022/12/22 04:30:54;;;;;;;5.30;4.47;;;11.70;72.10;;;7.20;100.00;95177.97;4923786;29;20023;-52
2022/12/22 04:33:26;;;;;;;7.22;4.30;;;11.80;72.10;;;7.22;100.00;95177.75;4929461;29;20470;-52
2022/12/22 04:35:51;;;;;;;5.70;4.20;;;11.80;72.10;;;7.19;100.00;95185.13;4933812;28;20027;-57
2022/12/22 04:38:30;;;;;;;6.85;4.57;;;11.80;72.10;;;7.21;100.00;95178.78;4934714;29;20038;-55
2022/12/22 04:41:06;;;;;;;5.57;4.70;;;11.80;72.10;;;7.18;100.00;95175.59;4923033;28;20038;-57
2022/12/22 04:43:33;;;;;;;6.50;4.00;;;11.80;72.10;;;7.18;100.00;95180.91;4932804;29;20110;-55
2022/12/22 04:46:03;;;;;;;9.30;4.30;;;11.80;72.10;;;7.21;100.00;95176.94;4931639;28;20035;-55
2022/12/22 04:48:31;;;;;;;9.43;4.10;;;11.80;72.20;;;7.21;100.00;95181.44;4916034;29;20031;-52
2022/12/22 04:51:09;;;;;;;5.38;3.90;;;11.80;72.10;;;7.21;100.00;95174.31;4933364;29;20070;-52
2022/12/22 04:53:37;;;;;;;6.05;3.90;;;11.80;72.10;;;7.15;100.00;95170.00;4926002;29;20054;-55
2022/12/22 04:56:07;;;;;;;9.50;4.43;;;11.70;72.00;;;7.12;100.00;95176.59;4932795;29;20043;-54
2022/12/22 04:58:37;;;;;;;8.07;4.07;;;11.70;72.00;;;7.10;100.00;95169.97;4933242;28;20118;-52
2022/12/22 05:01:16;;;;;;;5.78;4.30;;;11.70;72.00;;;7.08;100.00;95161.47;4934523;29;20118;-53
2022/12/22 05:03:42;;;;;;;5.45;3.75;;;11.70;72.10;;;7.07;100.00;95168.59;4928630;29;20086;-52
2022/12/22 05:06:11;;;;;;;6.25;3.50;;;11.70;72.10;;;7.06;100.00;95167.03;4930892;29;20031;-54
2022/12/22 05:08:40;;;;;;;5.35;3.67;;;11.70;72.20;;;7.11;100.00;95166.25;4945163;28;20038;-52
2022/12/22 05:11:07;;;;;;;5.25;3.00;;;11.70;72.10;;;7.09;100.00;95166.53;4927816;28;20481;-54
2022/12/22 05:13:33;;;;;;;6.20;3.90;;;11.60;71.90;;;7.01;100.00;95166.97;4932145;29;20031;-49
2022/12/22 05:16:15;;;;;;;5.05;3.83;;;11.60;71.90;;;6.93;100.00;95164.78;4934220;28;20061;-49
2022/12/22 05:18:44;;;;;;;6.13;3.67;;;11.50;71.80;;;6.91;100.00;95170.31;4941613;28;20394;-51
2022/12/22 05:21:16;;;;;;;4.78;3.80;;;11.50;71.80;;;6.82;100.00;95173.69;4933861;29;20478;-51
2022/12/22 05:23:43;;;;;;;4.97;3.60;;;11.40;71.70;;;6.77;100.00;95173.63;4932205;28;20034;-51
2022/12/22 05:26:13;;;;;;;5.82;4.03;;;11.40;71.80;;;6.77;100.00;95189.50;4916817;29;20430;-55
2022/12/22 05:28:41;;;;;;;4.00;3.60;;;11.40;72.00;;;6.75;100.00;95202.22;4933197;29;20468;-54
2022/12/22 05:31:16;;;;;;;5.50;4.20;;;11.40;72.30;;;6.81;100.00;95217.09;4933662;28;20023;-52
2022/12/22 05:33:41;;;;;;;4.93;3.22;;;11.40;72.40;;;6.80;100.00;95200.41;4932047;29;20039;-56
2022/12/22 05:36:11;;;;;;;6.88;3.90;;;11.40;72.40;;;6.84;100.00;95209.47;4928896;29;20031;-50
2022/12/22 05:38:37;;;;;;;4.75;3.80;;;11.40;72.40;;;6.84;100.00;95208.66;4928924;29;20031;-50
2022/12/22 05:41:03;;;;;;;4.07;3.08;;;11.40;72.40;;;6.85;100.00;95210.25;4932826;29;20023;-52
2022/12/22 05:43:36;;;;;;;5.45;2.92;;;11.40;72.30;;;6.88;100.00;95217.69;4933232;29;20070;-49
2022/12/22 05:46:11;;;;;;;5.88;3.22;;;11.40;72.40;;;6.90;100.00;95220.91;4946752;28;20098;-53
2022/12/22 05:48:49;;;;;;;7.10;3.20;;;11.40;72.40;;;6.89;100.00;95219.28;4932421;29;20035;-53
2022/12/22 05:51:14;;;;;;;3.35;2.80;;;11.40;73.10;;;6.82;100.00;95222.13;4932108;29;20075;-51
2022/12/22 05:53:43;;;;;;;4.05;3.00;;;11.30;72.30;;;6.77;100.00;95215.97;4932561;29;20121;-50
2022/12/22 05:56:09;;;;;;;5.32;3.25;;;11.30;72.30;;;6.77;100.00;95219.44;4947946;28;20038;-56
2022/12/22 05:58:40;;;;;;;5.50;3.67;;;11.30;72.30;;;6.73;100.00;95220.97;4932769;28;20034;-52
2022/12/22 06:01:07;;;;;;;4.38;3.28;;;11.30;72.40;;;6.77;100.00;95208.03;4931975;29;20018;-55
2022/12/22 06:03:33;;;;;;;5.20;3.33;;;11.30;72.50;;;6.79;100.00;95200.66;4914968;29;20027;-51
2022/12/22 06:06:05;;;;;;;4.65;2.60;;;11.30;72.50;;;6.82;100.00;95210.75;4932211;29;20038;-49
2022/12/22 06:08:31;;;;;;;3.75;2.40;;;11.30;72.50;;;6.85;100.00;95216.34;4931724;29;20027;-53
2022/12/22 06:10:58;;;;;;;6.05;2.53;;;11.30;72.40;;;6.86;100.00;95225.06;4933353;28;20049;-49
2022/12/22 06:13:39;;;;;;;3.85;2.55;;;11.30;72.40;;;6.92;100.00;95226.72;4925334;29;20126;-49
2022/12/22 06:16:06;;;;;;;6.05;2.22;;;11.40;72.40;;;6.98;100.00;95230.22;4927491;29;20035;-49
2022/12/22 06:18:41;;;;;;;4.38;2.25;;;11.40;72.40;;;7.03;100.00;95233.72;4915383;29;20470;-57
2022/12/22 06:21:09;;;;;;;4.13;2.13;;;11.50;72.50;;;7.06;100.00;95225.28;4922130;29;20042;-49
2022/12/22 06:23:35;;;;;;;3.88;1.70;;;11.50;72.40;;;7.08;100.00;95207.31;4928861;28;20046;-50
2022/12/22 06:26:01;;;;;;;2.97;1.70;;;11.50;72.30;;;7.10;100.00;95209.69;4928171;29;20020;-53
2022/12/22 06:28:34;;;;;;;5.28;1.95;;;11.50;72.20;;;7.09;100.00;95216.84;4928014;29;20051;-52
2022/12/22 06:31:09;;;;;;;4.50;1.70;;;11.50;72.20;;;7.12;100.00;95212.91;4932586;29;20026;-50
2022/12/22 06:33:40;;;;;;;5.63;1.70;;;11.40;72.30;;;7.17;100.00;95218.22;4932540;28;20054;-51
2022/12/22 06:36:09;;;;;;;4.03;2.05;;;11.40;72.40;;;7.19;100.00;95208.97;4929224;29;20031;-50
2022/12/22 06:38:51;;;;;;;2.33;1.48;;;11.50;72.40;;;7.25;100.00;95215.13;4932922;29;20039;-49
2022/12/22 06:43:07;;;;;;;6.63;1.73;;;11.60;72.50;;;7.29;100.00;95221.50;4930720;28;20023;-51
2022/12/22 06:44:06;;;;;;;4.38;1.92;;;11.60;72.50;;;7.31;100.00;95210.69;4932159;28;20454;-50
2022/12/22 06:46:32;;;;;;;5.25;1.77;;;11.60;72.40;;;7.34;100.00;95212.81;4937102;28;20022;-53
2022/12/22 06:48:57;;;;;;;5.13;1.92;;;11.60;72.40;;;7.35;100.00;95201.94;4931313;28;20542;-54
2022/12/22 06:51:23;;;;;;;4.55;1.67;;;11.60;72.30;;;7.36;100.00;95200.09;4931075;29;20019;-54
2022/12/22 06:53:49;;;;;;;2.08;1.50;;;11.60;72.30;;;7.34;100.00;95202.22;4940368;28;20117;-51
2022/12/22 06:56:15;;;;;;;5.00;1.30;;;11.60;72.30;;;7.32;100.00;95209.63;4945197;28;21353;-51
2022/12/22 06:58:41;;;;;;;3.05;1.73;;;11.60;72.30;;;7.35;100.00;95207.25;4949925;28;20948;-56
2022/12/22 07:01:07;;;;;;;5.43;1.65;;;11.60;72.30;;;7.38;100.00;95204.09;4897792;28;20059;-57
2022/12/22 07:03:32;;;;;;;4.30;1.60;;;11.60;72.20;;;7.39;100.00;95191.66;4948925;28;20042;-52
2022/12/22 07:05:58;;;;;;;3.78;1.50;;;11.70;72.20;;;7.39;100.00;95191.66;4928680;28;20015;-56
2022/12/22 07:08:24;;;;;;;4.22;1.50;;;11.70;72.20;;;7.42;100.00;95199.09;4950859;28;20482;-51
2022/12/22 07:10:56;;;;;;;4.03;1.58;;;11.70;72.30;;;7.41;100.00;95208.09;4928078;29;20030;-54
2022/12/22 07:13:28;;;;;;;2.97;1.30;;;11.70;72.00;;;7.45;99.92;95198.59;4930645;28;20037;-52
2022/12/22 07:15:54;;;;;;;2.93;1.50;;;11.80;72.00;;;7.48;99.38;95206.03;4931848;28;20109;-55
2022/12/22 07:18:20;;;;;;;5.13;1.30;;;11.80;71.90;;;7.53;99.00;95213.22;4932522;29;20313;-52
2022/12/22 07:20:46;;;;;;;2.45;1.20;;;11.90;71.90;;;7.57;99.35;95219.63;4949303;28;20125;-53
2022/12/22 07:23:12;;;;;;;3.67;1.83;;;11.90;71.80;;;7.61;99.43;95224.13;4925277;29;20081;-54
2022/12/22 07:25:41;;;;;;;6.80;1.90;;;11.90;71.70;;;7.62;99.34;95225.75;4933456;29;20026;-53
2022/12/22 07:28:08;;;;;;;3.70;1.67;;;12.00;71.60;;;7.67;98.55;95218.88;4941091;28;20031;-54
2022/12/22 07:30:38;;;;;;;3.03;1.30;;;12.00;71.70;;;7.73;97.76;95220.53;4947624;28;20046;-54
2022/12/22 07:33:04;;;;;;;4.95;1.45;;;12.00;71.30;;;7.75;97.00;95215.78;4925887;28;20468;-55
2022/12/22 07:35:30;;;;;;;2.20;1.10;;;12.10;71.20;;;7.78;96.63;95234.63;4949373;28;20038;-51
2022/12/22 07:37:56;;;;;;;4.70;0.95;;;12.10;71.00;;;7.82;95.91;95241.00;4946441;28;20030;-49
2022/12/22 07:40:22;;;;;;;2.88;1.08;;;12.20;70.80;;;7.84;95.81;95254.03;4953499;28;20026;-54
2022/12/22 07:42:47;;;;;;;1.58;0.90;;;12.20;70.60;;;7.84;95.52;95249.50;4926501;29;20027;-56
2022/12/22 07:45:23;;;;;;;4.60;1.38;;;12.20;70.40;;;7.91;94.48;95253.78;4935874;29;20074;-51
2022/12/22 07:47:49;;;;;;;2.92;0.93;;;12.30;70.30;;;7.98;94.24;95251.72;4950805;28;20027;-52
2022/12/22 07:50:31;;;;;;;3.35;0.90;;;12.30;70.20;;;8.01;93.31;95227.31;4933749;29;20027;-49
2022/12/22 07:53:03;;;;;;;4.78;1.15;;;12.40;69.90;;;8.13;92.37;95230.59;4878197;28;20574;-50
2022/12/22 07:55:36;;;;;;;3.30;1.00;;;12.50;70.60;;;8.21;92.37;95221.31;4937542;29;20078;-50
2022/12/22 07:58:07;;;;;;;4.60;1.02;;;12.60;69.60;;;8.24;91.33;95212.84;4949654;28;20042;-56
2022/12/22 08:00:39;;;;;;;2.22;1.10;;;12.70;69.30;;;8.29;91.25;95221.63;4961622;28;20042;-49
2022/12/22 08:03:11;;;;;;;3.97;1.27;;;12.80;69.10;;;8.36;90.85;95218.75;4948919;29;20030;-49
2022/12/22 08:05:44;;;;;;;4.28;0.90;;;12.80;68.70;;;8.41;90.45;95220.66;4949671;28;20498;-49
2022/12/22 08:08:12;;;;;;;5.45;1.08;;;12.90;68.40;;;8.40;90.05;95224.34;4949686;28;20035;-51
2022/12/22 08:10:38;;;;;;;3.53;0.95;;;13.00;68.30;;;8.47;90.45;95225.72;4946172;28;20516;-50
2022/12/22 08:13:09;;;;;;;2.30;1.00;;;13.00;68.00;;;8.47;91.04;95230.25;4939457;28;20087;-51
2022/12/22 08:15:38;;;;;;;3.65;1.02;;;13.10;67.90;;;8.53;89.59;95240.63;4931169;28;20080;-49
2022/12/22 08:18:04;;;;;;;3.78;1.23;;;13.10;67.40;;;8.60;89.39;95244.91;4932289;28;20374;-51
2022/12/22 08:20:33;;;;;;;1.17;0.80;;;13.20;67.40;;;8.62;88.83;95250.72;4936734;28;20030;-53
2022/12/22 08:23:02;;;;;;;2.50;1.08;;;13.30;67.20;;;8.66;88.43;95228.72;4931402;28;20366;-49
2022/12/22 08:25:38;;;;;;;2.63;1.00;;;13.30;66.80;;;8.64;88.42;95222.88;4947122;28;20033;-50
2022/12/22 08:28:04;;;;;;;2.80;1.10;;;13.30;66.60;;;8.62;88.09;95210.91;4947066;28;20386;-58
2022/12/22 08:30:32;;;;;;;3.42;1.00;;;13.30;66.40;;;8.61;87.69;95191.53;4934132;28;20030;-50
2022/12/22 08:33:06;;;;;;;3.50;1.13;;;13.30;66.10;;;8.67;86.74;95221.53;4933814;28;20561;-50
2022/12/22 08:35:39;;;;;;;4.90;1.20;;;13.40;65.90;;;8.77;86.02;95222.41;4942253;28;20077;-52
2022/12/22 08:38:06;;;;;;;1.73;1.05;;;13.40;65.40;;;8.81;85.39;95225.31;4935961;28;20105;-50
2022/12/22 08:40:33;;;;;;;2.22;0.82;;;13.40;65.40;;;8.92;83.56;95199.56;4951904;28;20030;-54
2022/12/22 08:43:08;;;;;;;2.53;1.13;;;13.50;65.00;;;9.10;83.31;95227.50;4951348;28;20022;-51
2022/12/22 08:45:37;;;;;;;5.88;1.10;;;13.60;64.60;;;9.27;82.07;95204.13;4934283;28;20040;-53
2022/12/22 08:48:06;;;;;;;5.53;1.23;;;13.80;64.40;;;9.45;79.81;95219.56;4957866;28;20037;-49
2022/12/22 08:50:32;;;;;;;7.20;1.13;;;13.90;63.90;;;9.58;79.42;95242.16;4950093;28;20037;-50
2022/12/22 08:53:07;;;;;;;3.60;0.90;;;14.10;63.30;;;9.67;78.26;95239.75;4932398;28;20015;-50
2022/12/22 08:55:33;;;;;;;3.30;1.27;;;14.30;62.70;;;9.78;78.66;95261.81;4899321;29;20439;-52
2022/12/22 08:58:02;;;;;;;5.38;1.52;;;14.40;62.30;;;9.87;78.22;95269.03;4926026;28;20704;-50
2022/12/22 09:00:37;;;;;;;5.55;1.27;;;14.70;61.50;;;9.93;77.60;95262.63;4935819;28;20482;-51
2022/12/22 09:03:03;;;;;;;7.45;1.48;;;14.90;61.10;;;10.00;77.50;95267.69;4951639;28;20054;-49
2022/12/22 09:05:32;;;;;;;4.70;1.30;;;15.00;60.70;;;10.07;77.50;95262.88;4935863;28;20595;-49
2022/12/22 09:08:01;;;;;;;5.15;1.30;;;15.20;60.20;;;10.17;77.30;95268.16;4935817;28;20018;-49
2022/12/22 09:10:30;;;;;;;2.30;1.05;;;15.30;60.10;;;10.18;76.25;95272.44;4955601;28;20030;-49
2022/12/22 09:13:02;;;;;;;7.78;1.88;;;15.40;59.60;;;10.15;75.76;95243.72;4949760;28;20042;-49
2022/12/22 09:15:35;;;;;;;5.70;1.48;;;15.40;59.10;;;10.12;74.88;95238.09;4952277;28;20081;-53
2022/12/22 09:18:01;;;;;;;8.23;1.73;;;15.40;59.00;;;10.12;75.74;95249.56;4934676;28;20081;-51
2022/12/22 09:20:30;;;;;;;6.40;1.60;;;15.30;58.80;;;10.17;76.40;95264.72;4944506;28;20042;-49
2022/12/22 09:22:59;;;;;;;5.63;1.30;;;15.30;58.90;;;10.05;75.69;95256.22;4905055;28;20042;-49
2022/12/22 09:25:28;;;;;;;3.25;1.27;;;15.20;58.80;;;10.00;75.55;95273.00;4953323;28;20377;-50
2022/12/22 09:27:54;;;;;;;5.70;1.48;;;15.10;58.40;;;9.98;75.49;95267.13;4935417;28;20022;-49
2022/12/22 09:30:23;;;;;;;6.47;1.48;;;15.10;58.20;;;10.03;75.66;95280.44;4928623;28;20496;-50
2022/12/22 09:32:48;;;;;;;5.38;1.40;;;15.10;58.30;;;10.05;76.17;95283.63;4952984;28;20126;-50
2022/12/22 09:35:14;;;;;;;4.35;1.63;;;15.10;58.50;;;9.96;76.20;95288.72;4952300;28;20402;-51
2022/12/22 09:37:40;;;;;;;4.45;1.52;;;15.00;58.40;;;10.01;77.26;95303.84;4952808;28;20034;-50
2022/12/22 09:40:12;;;;;;;4.32;1.27;;;15.00;58.50;;;9.94;76.71;95322.75;4951456;28;20044;-49
2022/12/22 09:42:38;;;;;;;3.73;1.10;;;15.00;58.50;;;9.98;77.70;95306.25;4953195;28;20023;-52
2022/12/22 09:45:18;;;;;;;6.40;1.20;;;15.00;58.60;;;10.01;77.87;95303.84;4935639;28;20300;-49
2022/12/22 09:47:53;;;;;;;5.70;1.50;;;15.00;58.60;;;9.98;77.03;95319.56;4935274;28;20029;-50
2022/12/22 09:50:25;;;;;;;7.20;1.60;;;15.10;58.60;;;9.95;76.65;95308.38;4952289;28;20477;-50
2022/12/22 09:53:03;;;;;;;6.60;1.70;;;15.10;58.10;;;9.98;76.34;95320.34;4950324;28;20020;-51
2022/12/22 09:55:44;;;;;;;3.80;1.17;;;15.10;58.10;;;10.02;76.62;95312.63;4935529;28;20080;-50
2022/12/22 09:58:33;;;;;;;7.38;1.30;;;15.20;58.00;;;10.06;76.42;95303.03;4945639;28;20023;-50
2022/12/22 10:01:26;;;;;;;7.05;1.30;;;15.30;58.00;;;10.02;75.72;95318.75;4939753;28;20038;-52
2022/12/22 10:04:28;;;;;;;8.68;1.60;;;15.30;57.50;;;10.15;75.39;95306.75;4926217;28;20026;-55
2022/12/22 10:07:33;;;;;;;9.13;1.95;;;15.50;57.30;;;10.29;76.43;95326.47;4946359;28;20412;-50
2022/12/22 10:10:30;;;;;;;6.85;1.55;;;15.70;57.20;;;10.51;75.20;95320.06;4950979;28;20031;-50
2022/12/22 10:13:01;;;;;;;8.00;1.52;;;16.00;57.00;;;10.67;74.74;95326.94;4913148;29;20105;-51
2022/12/22 10:15:37;;;;;;;7.32;1.52;;;16.30;56.80;;;10.64;74.73;95335.47;4943862;28;20085;-53
2022/12/22 10:18:25;;;;;;;4.88;1.48;;;16.30;56.30;;;10.57;74.00;95317.09;4932081;28;20061;-51
2022/12/22 10:21:13;;;;;;;6.70;2.05;;;16.30;55.90;;;10.50;74.60;95327.25;4902212;28;20054;-54
2022/12/22 10:23:47;;;;;;;7.32;1.50;;;16.40;55.70;;;10.57;74.59;95335.75;4928529;28;20023;-53
2022/12/22 10:26:34;;;;;;;8.95;1.90;;;16.40;55.70;;;10.54;75.19;95328.31;4951025;28;20461;-52
2022/12/22 10:29:06;;;;;;;5.90;1.65;;;16.40;55.50;;;10.56;74.99;95323.50;4941843;28;20491;-55
2022/12/22 10:32:17;;;;;;;7.65;1.65;;;16.50;55.20;;;10.62;74.94;95329.59;4951406;28;20105;-50
2022/12/22 10:35:06;;;;;;;5.28;1.60;;;16.40;55.30;;;10.55;75.66;95329.09;4939287;28;20035;-50
2022/12/22 10:37:38;;;;;;;5.07;1.45;;;16.40;55.40;;;10.55;75.61;95345.06;4950218;28;20494;-50
2022/12/22 10:40:19;;;;;;;5.82;1.88;;;16.40;55.40;;;10.70;75.26;95330.94;4927714;28;20045;-50
2022/12/22 10:42:56;;;;;;;8.10;1.60;;;16.50;55.50;;;10.64;76.21;95317.63;4950762;28;20081;-50
2022/12/22 10:45:34;;;;;;;4.45;1.30;;;16.50;55.40;;;10.64;76.60;95327.47;4949700;28;20388;-50
2022/12/22 10:48:00;;;;;;;5.30;1.40;;;16.50;55.40;;;10.49;77.94;95322.97;4954425;28;20019;-52
2022/12/22 10:50:26;;;;;;;7.75;1.88;;;16.40;55.40;;;10.41;78.04;95332.31;4910445;28;20270;-54
2022/12/22 10:52:57;;;;;;;6.70;1.83;;;16.30;55.50;;;10.43;77.35;95308.06;4916111;28;20124;-50
2022/12/22 10:55:29;;;;;;;4.15;1.20;;;16.30;55.70;;;10.38;78.84;95316.09;4932385;28;20100;-50
2022/12/22 10:58:10;;;;;;;11.80;1.88;;;16.10;55.80;;;10.37;80.43;95322.47;4948517;28;20486;-51
2022/12/22 11:00:38;;;;;;;8.87;1.80;;;16.00;56.20;;;10.40;79.65;95309.44;4949524;28;20050;-51
2022/12/22 11:03:13;;;;;;;4.60;1.65;;;16.10;56.30;;;10.86;77.30;95303.16;4949952;28;20454;-52
2022/12/22 11:05:43;;;;;;;8.38;1.85;;;16.70;56.20;;;11.32;74.78;95301.06;4939153;28;20027;-52
2022/12/22 11:08:19;;;;;;;8.43;2.13;;;17.40;55.80;;;11.70;73.56;95295.22;4945158;28;20030;-55
2022/12/22 11:11:05;;;;;;;5.57;1.90;;;17.90;55.20;;;11.58;71.65;95283.03;4927219;28;20030;-51
2022/12/22 11:14:18;;;;;;;5.68;1.50;;;18.20;54.20;;;11.62;73.50;95277.94;4950067;28;20023;-51
2022/12/22 11:17:25;;;;;;;7.07;2.05;;;18.10;53.80;;;11.37;73.33;95273.56;4919586;28;20027;-51
2022/12/22 11:21:07;;;;;;;3.42;1.52;;;18.00;53.60;;;11.36;73.29;95274.66;4932710;28;20250;-53
2022/12/22 11:24:05;;;;;;;6.78;1.83;;;17.80;53.40;;;11.31;73.31;95270.16;4922709;29;20469;-52
2022/12/22 11:27:17;;;;;;;7.25;1.60;;;17.70;53.40;;;11.40;71.59;95275.69;4948543;29;20117;-55
2022/12/22 11:30:12;;;;;;;6.63;1.77;;;17.60;53.50;;;11.33;70.93;95270.66;4916232;29;20030;-51
2022/12/22 11:33:00;;;;;;;4.32;1.40;;;17.40;53.40;;;11.30;71.31;95276.53;4948228;29;20030;-52
2022/12/22 11:36:04;;;;;;;5.93;1.50;;;17.30;53.40;;;11.27;70.77;95268.31;4941562;28;20023;-54
2022/12/22 11:39:03;;;;;;;5.05;1.65;;;17.20;53.20;;;11.35;69.10;95257.06;4947297;29;20515;-53
2022/12/22 11:41:44;;;;;;;4.63;1.55;;;17.50;52.60;;;11.73;68.47;95263.44;4931926;29;20041;-54
2022/12/22 11:45:07;;;;;;;8.90;2.15;;;17.80;52.60;;;11.97;67.21;95238.72;4950889;28;20042;-53
2022/12/22 11:48:34;;;;;;;6.45;1.70;;;18.30;52.20;;;12.18;66.09;95256.13;4949383;28;20505;-54
2022/12/22 11:51:52;;;;;;;6.18;2.10;;;18.60;51.60;;;12.33;65.07;95265.09;4939836;28;20050;-53
2022/12/22 11:55:17;;;;;;;8.60;1.90;;;18.90;50.70;;;12.24;65.35;95265.69;4947478;28;20078;-53
2022/12/22 11:58:53;;;;;;;6.97;1.60;;;19.20;49.70;;;12.18;65.36;95266.81;4900378;29;20051;-51
2022/12/22 12:02:49;;;;;;;6.85;1.63;;;19.10;49.40;;;12.04;65.51;95277.38;4902407;29;20036;-53
2022/12/22 12:06:13;;;;;;;6.25;1.50;;;19.00;49.60;;;11.94;66.10;95264.13;4890596;29;20506;-51
2022/12/22 12:09:22;;;;;;;6.35;1.55;;;18.90;48.90;;;11.70;66.48;95255.22;4914678;29;20031;-54
2022/12/22 12:12:21;;;;;;;8.18;1.40;;;18.50;49.00;;;11.42;67.28;95259.41;4911655;29;20118;-53
2022/12/22 12:15:31;;;;;;;4.75;1.20;;;18.20;49.20;;;11.12;69.44;95269.19;4913892;29;20030;-57
2022/12/22 12:18:44;;;;;;;3.65;1.20;;;17.80;49.20;;;11.32;68.99;95269.06;4906597;29;20031;-55
2022/12/22 12:22:03;;;;;;;5.57;1.30;;;17.70;49.80;;;11.54;68.20;95266.00;4910069;29;20130;-54
2022/12/22 12:25:02;;;;;;;3.35;1.02;;;18.30;50.10;;;11.73;68.18;95254.66;4911549;29;20026;-51
2022/12/22 12:28:03;;;;;;;7.70;1.52;;;18.70;49.60;;;11.74;68.11;95258.91;4916391;29;20034;-53
2022/12/22 12:30:49;;;;;;;4.03;1.40;;;19.00;49.00;;;11.91;67.93;95264.69;4903906;29;20964;-55
2022/12/22 12:33:51;;;;;;;4.18;1.52;;;19.50;48.70;;;12.08;67.55;95248.22;4908614;29;20028;-53
2022/12/22 12:36:40;;;;;;;4.65;1.30;;;19.90;48.00;;;12.14;68.00;95265.78;4924767;29;20051;-53
2022/12/22 12:39:42;;;;;;;6.75;1.80;;;20.20;47.30;;;12.17;67.89;95264.44;4924244;29;20035;-56
2022/12/22 12:42:27;;;;;;;4.20;1.30;;;20.30;46.90;;;12.31;67.38;95272.56;4907622;29;20024;-52
2022/12/22 12:45:01;;;;;;;2.45;1.27;;;20.20;47.00;;;12.13;67.77;95258.88;4909434;29;20059;-51
2022/12/22 12:47:34;;;;;;;5.20;1.38;;;19.80;47.10;;;11.87;69.23;95271.63;4909581;29;20026;-52
2022/12/22 12:50:33;;;;;;;4.28;1.45;;;19.40;47.30;;;11.67;69.24;95277.13;4892635;29;20042;-51
2022/12/22 12:53:09;;;;;;;5.03;1.38;;;18.80;48.00;;;11.41;70.61;95287.97;4906450;29;20142;-57
2022/12/22 12:55:38;;;;;;;3.10;1.17;;;18.40;48.50;;;11.42;70.68;95272.75;4937635;28;20509;-53
2022/12/22 12:58:10;;;;;;;6.07;1.40;;;18.10;49.00;;;11.35;71.32;95295.19;4951752;28;20072;-57
2022/12/22 13:00:45;;;;;;;6.45;1.60;;;17.90;49.50;;;11.19;73.48;95283.03;4950553;28;20026;-52
2022/12/22 13:03:32;;;;;;;5.63;1.30;;;17.60;50.20;;;11.04;75.28;95307.09;4951195;28;20030;-55
2022/12/22 13:06:05;;;;;;;3.58;1.10;;;17.20;50.80;;;10.89;76.83;95298.06;4947318;28;20386;-56
2022/12/22 13:09:05;;;;;;;4.97;1.60;;;16.90;51.60;;;10.61;79.50;95277.41;4950149;28;20040;-55
2022/12/22 13:11:36;;;;;;;4.90;1.40;;;16.60;53.00;;;10.47;80.53;95311.03;4932934;28;20027;-56
2022/12/22 13:14:09;;;;;;;2.63;0.88;;;16.40;53.10;;;10.39;81.43;95299.03;4952089;28;20447;-57
2022/12/22 13:16:41;;;;;;;4.53;1.55;;;16.10;53.70;;;10.42;79.77;95293.97;4931694;28;20621;-56
2022/12/22 13:19:25;;;;;;;2.17;1.10;;;16.30;54.30;;;10.41;79.67;95300.38;4952040;28;20058;-57
2022/12/22 13:21:56;;;;;;;4.50;1.20;;;16.50;54.40;;;10.32;79.76;95322.50;4963165;28;20780;-55
2022/12/22 13:24:42;;;;;;;5.38;1.40;;;16.40;54.30;;;10.21;80.06;95311.00;4935802;28;20065;-57
2022/12/22 13:27:11;;;;;;;4.57;1.33;;;16.20;54.50;;;10.15;80.90;95328.06;4928562;28;20105;-55
2022/12/22 13:29:53;;;;;;;6.32;1.15;;;15.90;54.70;;;10.17;83.36;95337.38;4924447;28;20065;-55
2022/12/22 13:32:34;;;;;;;4.75;1.42;;;15.80;55.30;;;10.01;86.07;95337.66;4951883;28;20109;-57
2022/12/22 13:35:38;;;;;;;4.57;1.40;;;15.50;56.00;;;9.88;87.19;95346.97;4935358;28;20042;-54
2022/12/22 13:38:34;;;;;;;4.63;1.65;;;15.20;56.60;;;9.72;86.94;95346.94;4936758;28;20042;-55
2022/12/22 13:41:21;;;;;;;3.85;1.10;;;15.00;57.40;;;9.65;88.47;95319.00;4951779;28;20393;-56
2022/12/22 13:44:03;;;;;;;9.25;1.90;;;14.90;58.00;;;9.68;87.70;95321.13;4935524;28;20041;-54
2022/12/22 13:46:37;;;;;;;4.13;1.50;;;14.80;58.20;;;9.72;87.67;95330.19;4951301;28;20433;-53
2022/12/22 13:49:15;;;;;;;5.03;1.13;;;14.80;58.50;;;9.66;88.30;95323.28;4952264;28;20073;-55
2022/12/22 13:51:41;;;;;;;5.15;1.50;;;14.70;58.70;;;9.57;87.39;95323.00;4951208;28;20054;-57
2022/12/22 13:54:36;;;;;;;7.80;1.20;;;14.60;58.80;;;9.50;87.03;95322.47;4929721;28;20031;-57
2022/12/22 13:57:18;;;;;;;6.10;1.20;;;14.50;59.10;;;9.46;86.52;95335.50;4932016;28;20027;-54
2022/12/22 13:59:50;;;;;;;5.15;1.27;;;14.30;59.20;;;9.46;86.63;95335.50;4948783;28;20039;-57
2022/12/22 14:02:20;;;;;;;5.03;1.30;;;14.30;59.50;;;9.49;84.87;95327.00;4929970;28;20117;-53
2022/12/22 14:05:12;;;;;;;3.75;1.40;;;14.20;59.60;;;9.56;84.83;95326.72;4912713;29;20138;-55
2022/12/22 14:08:05;;;;;;;3.97;1.30;;;14.20;59.80;;;9.62;85.07;95323.00;4930562;28;20054;-55
2022/12/22 14:10:43;;;;;;;5.47;1.23;;;14.20;59.80;;;9.62;84.51;95325.69;4956146;28;20034;-55
2022/12/22 14:13:28;;;;;;;8.35;1.58;;;14.20;59.90;;;9.62;84.52;95323.00;4933881;28;20031;-57
2022/12/22 14:16:06;;;;;;;5.47;1.23;;;14.20;59.90;;;9.64;84.14;95325.41;4951455;28;20430;-55
2022/12/22 14:18:33;;;;;;;6.95;1.40;;;14.30;59.90;;;9.65;83.67;95322.47;4949539;28;20430;-57
2022/12/22 14:21:03;;;;;;;5.63;1.15;;;14.30;59.80;;;9.68;82.87;95331.78;4938782;28;20030;-57
2022/12/22 14:23:39;;;;;;;4.78;1.17;;;14.30;59.80;;;9.75;83.46;95327.00;4925747;28;20045;-54
2022/12/22 14:26:17;;;;;;;5.95;1.45;;;14.30;59.80;;;9.74;83.61;95322.72;4917035;28;20030;-57
2022/12/22 14:28:56;;;;;;;7.57;1.40;;;14.30;59.80;;;9.76;83.14;95314.50;4949562;28;20018;-55
2022/12/22 14:31:23;;;;;;;4.05;1.08;;;14.40;59.80;;;9.73;82.89;95305.97;4947348;28;20113;-56
2022/12/22 14:34:04;;;;;;;6.15;1.60;;;14.40;59.70;;;9.71;82.91;95299.31;4928371;28;20105;-57
2022/12/22 14:36:44;;;;;;;2.88;1.13;;;14.40;59.60;;;9.69;83.45;95301.47;4931969;28;20494;-55